首页
METAR-TAF:

METAR-TAF

机场 :

圖爾恰, 罗马尼亚

纬度: 45-11N, 经度: 028-49E, 海拔: 4米

当前天气观测

该预报发布于32分钟前的07:30 UTC
风速5节,风向南转南东,在东南西南之间变化
温度 10°C
湿度 23%
气压 1016 hPa
能见度10公里或以上
1500米以下无云,无积雨云

METAR: LRTC 030730Z 16005KT 130V220 CAVOK 10/M10 Q1016

时间: 11:02 (08:02 UTC)

预报

该预报发布于3小时和2分钟前的05:00 UTC
预报有效从03日的 06点(UTC)到 03日的 15点(UTC)
风速4节,风向多变
能见度10公里或以上
1500米以下无云,无积雨云
成为
从 03日的 13点(UTC)到 03日的 15点(UTC)
风速10节,风向

TAF: LRTC 030500Z 0306/0315 VRB04KT CAVOK BECMG 0313/0315 18010KT

超过4000个机场的气象观测和天气预报(METAR&TAF报告)。

可查询的气象台以黄色和红色小点在地图上表示。

将鼠标移到小点上方,可查看气象台名称。

然后点击查看天气观测和预报。

如需切换地图:点击带黑十字的绿色按钮放大地图;点击带横线的绿色按钮缩小地图;或者点击绿色箭头查看邻近地区的地图。


METAR-TAF: